Time;durP1;ratioP1;P1;durP2;ratioP2;P2;SDS_P1;SDS_P2;PMS_P1;PMS_P2;Temp;Humidity;BMP_temperature;BMP_pressure;BME280_temperature;BME280_humidity;BME280_pressure;Samples;Min_cycle;Max_cycle;Signal;HPM_P1;HPM_P2
2021/08/09 00:00:58;;;;;;;5.27;4.97;;;17.90;99.90;;;;;;4935852;29;20189;-68
2021/08/09 00:03:24;;;;;;;5.83;5.43;;;18.00;99.90;;;;;;4936608;29;20186;-69
2021/08/09 00:05:50;;;;;;;6.00;5.00;;;18.00;99.90;;;;;;4936133;29;20174;-76
2021/08/09 00:08:15;;;;;;;5.30;5.00;;;18.00;99.90;;;;;;4950940;29;20178;-70
2021/08/09 00:10:41;;;;;;;5.70;5.40;;;18.00;99.90;;;;;;4936442;29;20705;-69
2021/08/09 00:13:07;;;;;;;5.90;5.40;;;17.90;99.90;;;;;;4935713;29;20181;-70
2021/08/09 00:15:33;;;;;;;5.70;5.30;;;18.00;99.90;;;;;;4936214;29;20205;-69
2021/08/09 00:17:58;;;;;;;6.17;5.20;;;17.90;99.90;;;;;;4935514;29;20530;-70
2021/08/09 00:20:24;;;;;;;5.70;5.30;;;18.00;99.90;;;;;;4940110;29;20236;-69
2021/08/09 00:22:50;;;;;;;5.73;5.23;;;18.00;99.90;;;;;;4935791;29;20685;-73
2021/08/09 00:25:16;;;;;;;5.70;5.30;;;18.00;99.90;;;;;;4935698;29;20665;-68
2021/08/09 00:27:42;;;;;;;5.83;5.43;;;18.00;99.90;;;;;;4943515;29;20225;-69
2021/08/09 00:30:09;;;;;;;5.40;4.90;;;18.00;99.90;;;;;;4941631;29;20456;-70
2021/08/09 00:32:35;;;;;;;5.17;4.77;;;18.00;99.90;;;;;;4940824;29;20890;-69
2021/08/09 00:35:01;;;;;;;5.90;5.40;;;18.00;99.90;;;;;;4943745;28;20759;-69
2021/08/09 00:37:26;;;;;;;6.20;5.80;;;18.00;99.90;;;;;;4944991;29;20421;-68
2021/08/09 00:39:52;;;;;;;6.73;6.13;;;18.10;99.90;;;;;;4942195;29;20186;-69
2021/08/09 00:42:18;;;;;;;6.00;5.50;;;18.10;99.90;;;;;;4944655;28;20227;-69
2021/08/09 00:44:44;;;;;;;7.50;6.10;;;18.10;99.90;;;;;;4944776;29;20208;-70
2021/08/09 00:47:10;;;;;;;7.03;5.43;;;18.10;99.90;;;;;;4942096;28;20192;-69
2021/08/09 00:49:36;;;;;;;5.30;4.90;;;18.10;99.90;;;;;;4944865;28;20191;-69
2021/08/09 00:52:04;;;;;;;6.67;6.03;;;18.10;99.90;;;;;;4943018;29;20437;-69
2021/08/09 00:54:31;;;;;;;5.93;5.47;;;18.10;99.90;;;;;;4941120;28;20418;-69
2021/08/09 00:56:57;;;;;;;5.90;5.40;;;18.10;99.90;;;;;;4943066;28;20412;-69
2021/08/09 00:59:23;;;;;;;6.33;5.60;;;18.10;99.90;;;;;;4944312;29;20473;-69
2021/08/09 01:01:49;;;;;;;6.50;6.00;;;18.10;99.90;;;;;;4942556;29;20418;-75
2021/08/09 01:04:14;;;;;;;6.90;6.20;;;18.10;99.90;;;;;;4966554;28;20183;-69
2021/08/09 01:06:40;;;;;;;6.07;5.57;;;18.10;99.90;;;;;;4943817;29;20178;-70
2021/08/09 01:09:10;;;;;;;6.17;5.67;;;18.20;99.90;;;;;;4942004;28;20272;-69
2021/08/09 01:12:04;;;;;;;6.30;5.80;;;18.20;99.90;;;;;;4944039;28;20433;-68
2021/08/09 01:15:10;;;;;;;6.57;6.00;;;18.20;99.90;;;;;;4936525;29;20505;-69
2021/08/09 01:17:41;;;;;;;5.70;5.30;;;18.20;99.90;;;;;;4941319;29;20773;-69
2021/08/09 01:20:31;;;;;;;5.30;4.90;;;18.20;99.90;;;;;;4942573;28;20455;-69
2021/08/09 01:23:31;;;;;;;5.50;5.07;;;18.20;99.90;;;;;;4935058;29;20428;-69
2021/08/09 01:26:19;;;;;;;5.40;5.00;;;18.20;99.90;;;;;;4938904;29;20948;-69
2021/08/09 01:28:46;;;;;;;5.00;4.60;;;18.10;99.90;;;;;;4940296;29;20413;-69
2021/08/09 01:31:14;;;;;;;6.07;5.07;;;18.10;99.90;;;;;;4942826;29;20453;-69
2021/08/09 01:33:41;;;;;;;4.80;4.40;;;18.10;99.90;;;;;;4938064;29;20428;-69
2021/08/09 01:36:08;;;;;;;5.10;4.40;;;18.10;99.90;;;;;;4940958;29;20507;-69
2021/08/09 01:38:35;;;;;;;3.73;3.53;;;18.10;99.90;;;;;;4939407;29;20828;-68
2021/08/09 01:41:01;;;;;;;4.37;4.07;;;18.10;99.90;;;;;;4938419;29;20425;-70
2021/08/09 01:43:29;;;;;;;4.27;4.00;;;18.10;99.90;;;;;;4943576;29;20590;-68
2021/08/09 01:45:57;;;;;;;4.20;3.90;;;18.20;99.90;;;;;;4941429;28;20449;-69
2021/08/09 01:48:23;;;;;;;3.87;3.67;;;18.20;99.90;;;;;;4942349;28;20405;-68
2021/08/09 01:50:49;;;;;;;3.93;3.63;;;18.20;99.90;;;;;;4942217;28;20460;-74
2021/08/09 01:53:16;;;;;;;4.20;3.90;;;18.20;99.90;;;;;;4941927;28;20419;-69
2021/08/09 01:55:42;;;;;;;3.77;3.50;;;18.20;99.90;;;;;;4944613;28;20941;-68
2021/08/09 01:58:09;;;;;;;3.93;3.73;;;18.10;99.90;;;;;;4940387;28;20421;-69
2021/08/09 02:00:34;;;;;;;3.97;3.77;;;18.10;99.90;;;;;;4942236;29;20865;-69
2021/08/09 02:03:00;;;;;;;6.23;4.27;;;18.00;99.90;;;;;;4940769;29;20422;-68
2021/08/09 02:05:26;;;;;;;4.93;4.50;;;18.00;99.90;;;;;;4938586;29;20189;-69
2021/08/09 02:07:53;;;;;;;4.60;4.20;;;18.00;99.90;;;;;;4938184;29;20192;-75
2021/08/09 02:10:23;;;;;;;4.73;3.90;;;18.00;99.90;;;;;;4938658;29;20601;-69
2021/08/09 02:13:06;;;;;;;6.20;5.60;;;17.90;99.90;;;;;;4938817;29;20898;-75
2021/08/09 02:15:54;;;;;;;4.80;4.50;;;17.90;99.90;;;;;;4938582;29;20410;-68
2021/08/09 02:18:20;;;;;;;6.40;4.77;;;18.00;99.90;;;;;;4938535;29;20465;-68
2021/08/09 02:20:46;;;;;;;3.97;3.70;;;18.00;99.90;;;;;;4938374;29;20477;-68
2021/08/09 02:23:17;;;;;;;3.93;3.27;;;17.90;99.90;;;;;;4937146;29;20174;-69
2021/08/09 02:25:47;;;;;;;4.13;3.90;;;17.90;99.90;;;;;;4938471;29;20405;-69
2021/08/09 02:28:17;;;;;;;4.67;3.97;;;18.00;99.90;;;;;;4937565;29;20603;-68
2021/08/09 02:30:50;;;;;;;3.83;3.63;;;17.80;99.90;;;;;;4937846;29;20523;-68
2021/08/09 02:33:18;;;;;;;3.63;3.33;;;17.80;99.90;;;;;;4937491;29;20452;-69
2021/08/09 02:35:45;;;;;;;6.67;4.03;;;17.80;99.90;;;;;;4938464;29;20433;-69
2021/08/09 02:38:13;;;;;;;4.30;4.00;;;17.80;99.90;;;;;;4937367;29;20921;-69
2021/08/09 02:40:40;;;;;;;4.10;3.80;;;17.80;99.90;;;;;;4938051;29;20457;-69
2021/08/09 02:43:06;;;;;;;4.83;4.47;;;17.80;99.90;;;;;;4937300;29;20424;-69
2021/08/09 02:45:32;;;;;;;3.67;3.40;;;17.80;99.90;;;;;;4937780;29;20533;-68
2021/08/09 02:47:59;;;;;;;4.20;3.90;;;17.80;99.90;;;;;;4936942;29;20504;-69
2021/08/09 02:50:26;;;;;;;3.40;3.20;;;17.80;99.90;;;;;;4937839;29;20763;-68
2021/08/09 02:52:52;;;;;;;4.17;3.87;;;17.90;99.90;;;;;;4937860;29;20401;-74
2021/08/09 02:55:18;;;;;;;3.40;3.20;;;17.80;99.90;;;;;;4937415;29;20413;-69
2021/08/09 02:57:47;;;;;;;3.77;3.57;;;17.90;99.90;;;;;;4937777;29;20480;-69
2021/08/09 03:00:13;;;;;;;4.30;4.10;;;17.90;99.90;;;;;;4936843;29;20913;-69
2021/08/09 03:02:44;;;;;;;5.17;4.20;;;17.90;99.90;;;;;;4937800;29;20425;-69
2021/08/09 03:05:12;;;;;;;4.57;4.27;;;17.90;99.90;;;;;;4936684;29;20925;-69
2021/08/09 03:07:39;;;;;;;5.60;4.40;;;17.90;99.90;;;;;;4937723;29;20766;-69
2021/08/09 03:10:12;;;;;;;4.30;4.00;;;18.00;99.90;;;;;;4951073;28;20453;-69
2021/08/09 03:12:38;;;;;;;3.97;3.50;;;18.10;99.90;;;;;;4936331;29;20441;-69
2021/08/09 03:15:05;;;;;;;4.33;3.93;;;18.10;99.90;;;;;;4936774;29;20902;-69
2021/08/09 03:17:31;;;;;;;4.30;3.90;;;18.10;99.90;;;;;;4937342;29;20413;-69
2021/08/09 03:19:56;;;;;;;4.83;4.43;;;18.20;99.90;;;;;;4936414;29;20461;-74
2021/08/09 03:22:22;;;;;;;4.10;3.80;;;18.20;99.90;;;;;;4937328;29;20578;-69
2021/08/09 03:24:48;;;;;;;3.70;3.50;;;18.20;99.90;;;;;;4937347;29;20205;-69
2021/08/09 03:27:14;;;;;;;3.87;3.63;;;18.20;99.90;;;;;;4936106;29;20193;-69
2021/08/09 03:29:39;;;;;;;3.73;3.53;;;18.20;99.90;;;;;;4937021;29;20519;-69
2021/08/09 03:32:05;;;;;;;4.00;3.80;;;18.20;99.90;;;;;;4936440;29;20224;-69
2021/08/09 03:34:31;;;;;;;3.77;3.57;;;18.20;99.90;;;;;;4936732;29;20190;-70
2021/08/09 03:36:57;;;;;;;4.10;3.80;;;18.20;99.90;;;;;;4936502;29;20429;-74
2021/08/09 03:39:23;;;;;;;5.20;4.40;;;18.20;99.90;;;;;;4936823;29;20212;-69
2021/08/09 03:41:49;;;;;;;5.10;4.67;;;18.20;99.90;;;;;;4952191;29;20189;-69
2021/08/09 03:44:15;;;;;;;5.53;4.83;;;18.20;99.90;;;;;;4936792;29;20736;-70
2021/08/09 03:46:41;;;;;;;4.67;4.33;;;18.20;99.90;;;;;;4937053;29;20412;-69
2021/08/09 03:49:10;;;;;;;4.10;3.90;;;18.20;99.90;;;;;;4936626;29;20205;-70
2021/08/09 03:51:37;;;;;;;4.13;3.93;;;18.20;99.90;;;;;;4937251;29;20417;-69
2021/08/09 03:54:03;;;;;;;6.27;4.60;;;18.10;99.90;;;;;;4936561;29;20422;-69
2021/08/09 03:56:29;;;;;;;4.60;4.30;;;18.10;99.90;;;;;;4937088;29;20465;-69
2021/08/09 03:58:55;;;;;;;5.10;4.70;;;18.10;99.90;;;;;;4936983;29;20836;-69
2021/08/09 04:01:21;;;;;;;5.43;5.13;;;18.10;99.90;;;;;;4937126;29;20189;-70
2021/08/09 04:03:46;;;;;;;4.87;4.57;;;18.10;99.90;;;;;;4936976;29;20465;-69
2021/08/09 04:06:12;;;;;;;5.63;5.30;;;18.10;99.90;;;;;;4936402;29;20174;-69
2021/08/09 04:08:41;;;;;;;4.73;4.27;;;18.10;99.90;;;;;;4936928;29;20665;-69
2021/08/09 04:11:07;;;;;;;6.90;5.33;;;18.00;99.90;;;;;;4936230;29;20178;-69
2021/08/09 04:13:34;;;;;;;5.27;4.70;;;18.00;99.90;;;;;;4936806;29;20902;-69
2021/08/09 04:16:00;;;;;;;5.20;4.90;;;18.00;99.90;;;;;;4936200;29;20769;-69
2021/08/09 04:18:26;;;;;;;5.10;4.70;;;18.00;99.90;;;;;;4937082;29;20417;-69
2021/08/09 04:20:51;;;;;;;5.10;4.80;;;18.00;99.90;;;;;;4936129;29;20491;-69
2021/08/09 04:23:17;;;;;;;4.90;4.60;;;18.00;99.90;;;;;;4935526;29;20630;-69
2021/08/09 04:25:43;;;;;;;5.20;4.90;;;18.00;99.90;;;;;;4936661;29;20523;-69
2021/08/09 04:28:09;;;;;;;4.70;4.40;;;18.00;99.90;;;;;;4936003;29;20184;-69
2021/08/09 04:30:34;;;;;;;4.23;3.83;;;18.00;99.90;;;;;;4936331;29;20231;-69
2021/08/09 04:33:04;;;;;;;6.50;4.10;;;18.00;99.90;;;;;;4935566;29;20433;-69
2021/08/09 04:35:30;;;;;;;4.30;4.00;;;18.00;99.90;;;;;;4936328;29;20213;-69
2021/08/09 04:37:56;;;;;;;4.70;4.17;;;18.00;99.90;;;;;;4936370;29;20405;-69
2021/08/09 04:40:21;;;;;;;4.33;4.03;;;18.00;99.90;;;;;;4935635;29;20453;-69
2021/08/09 04:42:47;;;;;;;12.97;9.90;;;18.00;99.90;;;;;;4936316;29;20436;-69
2021/08/09 04:45:13;;;;;;;4.40;4.20;;;18.00;99.90;;;;;;4935717;29;20597;-69
2021/08/09 04:47:39;;;;;;;5.63;4.97;;;18.00;99.90;;;;;;4936221;29;20229;-69
2021/08/09 04:50:05;;;;;;;7.10;6.40;;;17.90;99.90;;;;;;4935163;29;20185;-69
2021/08/09 04:52:31;;;;;;;5.13;4.63;;;17.90;99.90;;;;;;4936102;29;20257;-69
2021/08/09 04:54:56;;;;;;;8.60;6.57;;;17.80;99.90;;;;;;4936066;29;20505;-69
2021/08/09 04:57:22;;;;;;;4.13;3.83;;;17.60;99.90;;;;;;4935446;29;20181;-69
2021/08/09 04:59:48;;;;;;;3.93;3.73;;;17.50;99.90;;;;;;4936052;29;20653;-69
2021/08/09 05:02:13;;;;;;;5.63;5.23;;;17.40;99.90;;;;;;4935324;29;20214;-68
2021/08/09 05:04:39;;;;;;;6.13;5.77;;;17.40;99.90;;;;;;4936023;29;20173;-68
2021/08/09 05:07:05;;;;;;;3.67;3.50;;;17.30;99.90;;;;;;4935384;29;20184;-69
2021/08/09 05:09:35;;;;;;;7.73;7.20;;;17.20;99.90;;;;;;4935820;29;20642;-69
2021/08/09 05:12:01;;;;;;;3.93;3.57;;;17.10;99.90;;;;;;4935223;29;20763;-70
2021/08/09 05:14:27;;;;;;;6.53;6.20;;;17.30;99.90;;;;;;4935757;29;20441;-69
2021/08/09 05:16:53;;;;;;;3.97;3.57;;;17.30;99.90;;;;;;4935749;29;20406;-69
2021/08/09 05:19:19;;;;;;;5.80;5.40;;;17.50;99.90;;;;;;4934974;29;20206;-69
2021/08/09 05:21:44;;;;;;;4.60;4.30;;;17.60;99.90;;;;;;4935379;29;20417;-69
2021/08/09 05:24:10;;;;;;;4.43;4.10;;;17.60;99.90;;;;;;4935400;29;20614;-69
2021/08/09 05:26:36;;;;;;;6.70;6.10;;;17.60;99.90;;;;;;4935654;29;20264;-70
2021/08/09 05:29:02;;;;;;;4.80;4.30;;;17.60;99.90;;;;;;4934844;29;20178;-70
2021/08/09 05:31:28;;;;;;;4.37;3.97;;;17.60;99.90;;;;;;4935647;29;20178;-69
2021/08/09 05:33:58;;;;;;;4.47;4.17;;;17.70;99.90;;;;;;4935234;29;20493;-69
2021/08/09 05:36:24;;;;;;;6.90;6.50;;;17.80;99.90;;;;;;4934927;29;20746;-68
2021/08/09 05:38:50;;;;;;;4.33;3.37;;;18.00;99.90;;;;;;4935385;29;20418;-69
2021/08/09 05:41:16;;;;;;;6.40;6.10;;;18.20;99.90;;;;;;4934853;29;20414;-70
2021/08/09 05:43:41;;;;;;;4.97;3.83;;;18.20;99.90;;;;;;4949999;29;20177;-69
2021/08/09 05:46:07;;;;;;;4.47;4.27;;;18.20;99.90;;;;;;4935058;29;20185;-70
2021/08/09 05:48:34;;;;;;;5.10;4.90;;;18.40;99.90;;;;;;4935747;29;20190;-69
2021/08/09 05:50:59;;;;;;;4.90;4.60;;;18.60;99.90;;;;;;4935484;29;20193;-70
2021/08/09 05:53:29;;;;;;;7.10;6.70;;;18.80;99.90;;;;;;4934739;29;20410;-70
2021/08/09 05:55:55;;;;;;;5.33;5.00;;;18.90;99.90;;;;;;4935395;29;20162;-70
2021/08/09 05:58:21;;;;;;;5.00;4.70;;;19.10;99.90;;;;;;4934714;29;20740;-69
2021/08/09 06:00:47;;;;;;;8.07;7.57;;;19.20;99.90;;;;;;4935149;29;20213;-70
2021/08/09 06:03:22;;;;;;;4.03;3.83;;;19.20;99.90;;;;;;4949391;29;20199;-70
2021/08/09 06:05:49;;;;;;;5.77;5.47;;;19.10;99.90;;;;;;4935239;29;20196;-70
2021/08/09 06:08:15;;;;;;;5.23;4.73;;;19.20;99.90;;;;;;4934601;29;20433;-70
2021/08/09 06:10:40;;;;;;;5.80;5.50;;;19.40;99.90;;;;;;4934874;29;20413;-70
2021/08/09 06:13:06;;;;;;;4.07;3.87;;;19.50;99.90;;;;;;4934674;29;20186;-70
2021/08/09 06:15:32;;;;;;;6.80;6.50;;;19.60;99.90;;;;;;4935150;29;20233;-69
2021/08/09 06:17:58;;;;;;;4.60;4.30;;;19.70;99.90;;;;;;4935118;29;20190;-70
2021/08/09 06:20:23;;;;;;;5.20;4.80;;;19.80;99.90;;;;;;4933729;29;20460;-70
2021/08/09 06:22:49;;;;;;;5.33;4.93;;;19.70;99.20;;;;;;4934970;29;20906;-70
2021/08/09 06:25:15;;;;;;;5.00;4.47;;;19.80;98.80;;;;;;4934483;29;20237;-70
2021/08/09 06:27:41;;;;;;;6.70;6.20;;;19.80;98.80;;;;;;4934142;29;20180;-69
2021/08/09 06:30:07;;;;;;;4.53;4.23;;;19.80;98.20;;;;;;4933566;29;20704;-70
2021/08/09 06:32:33;;;;;;;4.63;4.20;;;19.90;98.40;;;;;;4934825;29;20437;-70
2021/08/09 06:34:59;;;;;;;6.13;5.53;;;19.90;98.40;;;;;;4934300;29;20425;-69
2021/08/09 06:37:24;;;;;;;5.30;5.10;;;20.00;98.50;;;;;;4933595;29;20273;-70
2021/08/09 06:39:50;;;;;;;4.23;4.03;;;20.00;98.60;;;;;;4934361;29;20661;-69
2021/08/09 06:42:16;;;;;;;9.23;8.50;;;20.00;98.80;;;;;;4933724;29;20338;-70
2021/08/09 06:44:42;;;;;;;5.30;4.90;;;20.10;99.00;;;;;;4933875;29;20268;-69
2021/08/09 06:47:07;;;;;;;7.20;6.50;;;20.10;98.80;;;;;;4937396;29;20615;-70
2021/08/09 06:49:33;;;;;;;3.97;3.77;;;20.20;98.80;;;;;;4937826;29;20196;-70
2021/08/09 06:51:59;;;;;;;5.10;4.60;;;20.20;98.80;;;;;;4952355;29;20185;-70
2021/08/09 06:54:25;;;;;;;6.30;5.90;;;20.20;98.80;;;;;;4937118;29;20182;-70
2021/08/09 06:56:51;;;;;;;3.80;3.60;;;20.30;98.30;;;;;;4945342;29;20203;-70
2021/08/09 06:59:18;;;;;;;7.50;7.20;;;20.30;98.40;;;;;;4955712;28;20448;-70
2021/08/09 07:01:44;;;;;;;3.50;3.20;;;20.30;98.70;;;;;;4956668;28;20492;-68
2021/08/09 07:04:09;;;;;;;4.93;4.53;;;20.30;98.80;;;;;;4935643;29;20421;-73
2021/08/09 07:06:35;;;;;;;5.30;5.00;;;20.20;98.30;;;;;;4937275;29;20449;-67
2021/08/09 07:09:03;;;;;;;4.20;3.90;;;20.20;98.60;;;;;;4936464;29;20205;-68
2021/08/09 07:11:29;;;;;;;6.53;6.23;;;20.00;98.30;;;;;;4936545;29;20173;-67
2021/08/09 07:13:54;;;;;;;4.30;3.97;;;19.80;98.10;;;;;;4937601;29;20493;-67
2021/08/09 07:16:24;;;;;;;3.80;3.60;;;19.60;98.00;;;;;;4937055;29;20409;-67
2021/08/09 07:18:50;;;;;;;5.63;5.00;;;19.50;98.50;;;;;;4937502;29;20178;-68
2021/08/09 07:21:15;;;;;;;5.20;4.90;;;19.50;99.10;;;;;;4935398;29;20469;-69
2021/08/09 07:23:41;;;;;;;3.07;2.97;;;19.40;98.60;;;;;;4937355;29;20405;-68
2021/08/09 07:26:07;;;;;;;6.13;5.83;;;19.40;98.80;;;;;;4932555;29;20194;-68
2021/08/09 07:28:33;;;;;;;3.00;2.70;;;19.30;98.60;;;;;;4917692;29;20190;-68
2021/08/09 07:30:59;;;;;;;5.67;5.30;;;19.30;99.10;;;;;;4932670;29;20465;-68
2021/08/09 07:33:26;;;;;;;5.50;5.10;;;19.30;99.40;;;;;;4934647;29;20200;-70
2021/08/09 07:35:52;;;;;;;3.20;3.00;;;19.30;99.40;;;;;;4935826;29;20189;-68
2021/08/09 07:38:18;;;;;;;3.30;3.00;;;19.30;99.90;;;;;;4935786;29;20439;-71
2021/08/09 07:40:44;;;;;;;5.40;5.10;;;19.40;99.90;;;;;;4936702;29;20807;-68
2021/08/09 07:43:10;;;;;;;3.20;3.00;;;19.40;99.90;;;;;;4936284;29;20634;-73
2021/08/09 07:45:35;;;;;;;3.40;3.20;;;19.50;99.90;;;;;;4936303;29;20178;-68
2021/08/09 07:48:03;;;;;;;4.70;3.27;;;19.50;99.50;;;;;;4936653;29;20185;-68
2021/08/09 07:50:29;;;;;;;4.17;3.10;;;19.60;99.40;;;;;;4936028;29;20197;-68
2021/08/09 07:52:54;;;;;;;3.27;3.07;;;19.60;99.30;;;;;;4936636;29;20442;-68
2021/08/09 07:55:21;;;;;;;3.20;3.00;;;19.50;99.50;;;;;;4935927;29;20417;-68
2021/08/09 07:57:46;;;;;;;3.07;2.87;;;19.50;99.80;;;;;;4936519;29;20222;-68
2021/08/09 08:00:14;;;;;;;4.37;3.03;;;19.60;99.70;;;;;;4936318;29;20845;-75
2021/08/09 08:02:40;;;;;;;3.50;3.20;;;19.70;99.10;;;;;;4936616;29;20197;-68
2021/08/09 08:05:06;;;;;;;5.73;5.43;;;19.70;98.90;;;;;;4936778;29;20438;-68
2021/08/09 08:07:32;;;;;;;3.10;2.90;;;19.70;98.50;;;;;;4935208;29;20967;-68
2021/08/09 08:10:01;;;;;;;4.07;3.37;;;19.80;98.60;;;;;;4936476;29;20422;-69
2021/08/09 08:12:27;;;;;;;4.37;4.00;;;19.70;98.70;;;;;;4934086;29;20476;-68
2021/08/09 08:14:52;;;;;;;3.87;3.10;;;19.70;98.20;;;;;;4936853;29;20405;-68
2021/08/09 08:17:18;;;;;;;4.20;3.90;;;19.70;97.90;;;;;;4936217;29;20174;-68
2021/08/09 08:19:44;;;;;;;4.00;3.70;;;19.70;97.90;;;;;;4936522;29;20662;-68
2021/08/09 08:22:10;;;;;;;3.63;3.10;;;19.70;97.90;;;;;;4936698;29;20196;-68
2021/08/09 08:24:36;;;;;;;4.50;4.20;;;19.70;98.20;;;;;;4935865;29;20540;-68
2021/08/09 08:27:02;;;;;;;3.63;3.40;;;19.80;99.00;;;;;;4935814;29;20449;-68
2021/08/09 08:29:28;;;;;;;3.87;3.67;;;19.80;97.80;;;;;;4935060;29;20974;-68
2021/08/09 08:31:54;;;;;;;3.33;3.03;;;19.90;98.90;;;;;;4936160;29;20446;-68
2021/08/09 08:34:20;;;;;;;3.70;3.50;;;20.00;99.30;;;;;;4933653;29;20257;-69
2021/08/09 08:36:45;;;;;;;4.77;4.37;;;20.20;99.10;;;;;;4935716;29;20190;-69
2021/08/09 08:39:11;;;;;;;2.83;2.67;;;20.30;98.60;;;;;;4935527;29;20321;-76
2021/08/09 08:41:46;;;;;;;3.60;3.40;;;20.40;98.30;;;;;;4935992;29;20273;-69
2021/08/09 08:44:19;;;;;;;3.50;3.30;;;20.60;97.40;;;;;;4935726;29;20162;-76
2021/08/09 08:46:45;;;;;;;3.20;2.90;;;20.70;97.30;;;;;;4936175;29;20898;-67
2021/08/09 08:49:15;;;;;;;3.37;3.17;;;20.80;97.90;;;;;;4935495;29;20437;-66
2021/08/09 08:51:45;;;;;;;5.27;4.87;;;21.00;98.40;;;;;;4936071;29;20504;-67
2021/08/09 08:54:14;;;;;;;3.90;3.60;;;21.10;97.10;;;;;;4951034;29;20416;-66
2021/08/09 08:56:41;;;;;;;4.10;3.80;;;21.30;96.20;;;;;;4936129;29;20890;-66
2021/08/09 08:59:11;;;;;;;3.73;3.57;;;21.40;95.40;;;;;;4935740;29;20464;-67
2021/08/09 09:01:44;;;;;;;5.50;5.20;;;21.50;95.70;;;;;;4935036;29;20444;-67
2021/08/09 09:04:31;;;;;;;5.20;4.80;;;21.60;96.20;;;;;;4935656;29;20425;-68
2021/08/09 09:07:00;;;;;;;6.37;5.87;;;21.40;95.00;;;;;;4935397;29;20501;-67
2021/08/09 09:09:27;;;;;;;4.43;3.23;;;21.40;95.80;;;;;;4943184;29;20429;-68
2021/08/09 09:11:53;;;;;;;5.77;5.47;;;21.50;95.60;;;;;;4934982;29;20446;-67
2021/08/09 09:14:31;;;;;;;8.20;7.60;;;21.60;95.30;;;;;;4934512;29;20433;-67
2021/08/09 09:16:59;;;;;;;4.20;3.77;;;21.70;95.60;;;;;;4935230;29;20877;-67
2021/08/09 09:19:36;;;;;;;6.27;5.97;;;21.80;95.90;;;;;;4934325;29;20536;-67
2021/08/09 09:22:05;;;;;;;4.23;3.90;;;21.90;94.00;;;;;;4935065;29;20429;-67
2021/08/09 09:24:31;;;;;;;4.60;4.30;;;22.00;93.40;;;;;;4934779;29;20874;-67
2021/08/09 09:27:03;;;;;;;7.50;7.20;;;22.10;94.40;;;;;;4934068;29;20413;-68
2021/08/09 09:29:38;;;;;;;3.50;3.40;;;22.10;92.90;;;;;;4934034;29;20572;-69
2021/08/09 09:32:16;;;;;;;8.23;7.77;;;22.20;94.60;;;;;;4935220;29;20421;-69
2021/08/09 09:34:56;;;;;;;3.77;3.47;;;22.40;93.20;;;;;;4934756;29;20516;-69
2021/08/09 09:37:35;;;;;;;7.93;7.53;;;22.50;93.50;;;;;;4934337;29;20448;-69
2021/08/09 09:40:05;;;;;;;15.57;14.17;;;22.60;92.80;;;;;;4934940;29;20472;-70
2021/08/09 09:42:37;;;;;;;5.03;4.73;;;22.80;92.50;;;;;;4934255;29;20421;-71
2021/08/09 09:45:21;;;;;;;5.53;5.03;;;22.90;91.70;;;;;;4935070;29;20424;-71
2021/08/09 09:48:04;;;;;;;4.50;4.10;;;23.00;91.90;;;;;;4933983;29;20951;-69
2021/08/09 09:50:31;;;;;;;3.83;3.53;;;23.10;91.30;;;;;;4934116;29;20488;-69
2021/08/09 09:53:12;;;;;;;6.57;6.03;;;23.30;90.90;;;;;;4934906;29;20413;-69
2021/08/09 09:55:39;;;;;;;4.27;3.90;;;23.30;90.60;;;;;;4934133;29;20426;-69
2021/08/09 09:58:04;;;;;;;5.90;5.43;;;23.10;90.80;;;;;;4934314;29;20472;-69
2021/08/09 10:00:30;;;;;;;4.13;3.83;;;23.10;91.00;;;;;;4934526;29;20461;-70
2021/08/09 10:02:56;;;;;;;3.60;3.37;;;22.90;91.10;;;;;;4935190;29;20205;-69
2021/08/09 10:05:22;;;;;;;5.47;5.17;;;22.90;91.20;;;;;;4934201;29;20261;-68
2021/08/09 10:07:51;;;;;;;3.13;2.97;;;22.80;90.20;;;;;;4934746;29;20516;-70
2021/08/09 10:10:23;;;;;;;4.83;4.63;;;22.60;90.30;;;;;;4934265;29;20189;-75
2021/08/09 10:12:50;;;;;;;5.77;5.37;;;22.50;90.80;;;;;;4934699;29;20440;-69
2021/08/09 10:15:19;;;;;;;5.50;4.93;;;22.50;91.40;;;;;;4934983;29;20916;-76
2021/08/09 10:17:47;;;;;;;6.20;5.83;;;22.40;91.00;;;;;;4933731;29;20532;-69
2021/08/09 10:20:16;;;;;;;3.77;3.57;;;22.40;91.10;;;;;;4935682;29;20461;-69
2021/08/09 10:22:55;;;;;;;6.17;5.53;;;22.20;91.20;;;;;;4939032;29;20456;-67
2021/08/09 10:25:48;;;;;;;4.53;3.53;;;22.20;91.00;;;;;;4937884;29;20894;-72
2021/08/09 10:28:15;;;;;;;4.07;3.60;;;22.10;91.20;;;;;;4923894;29;20428;-69
2021/08/09 10:30:41;;;;;;;4.00;3.70;;;22.10;91.50;;;;;;4937759;29;20461;-68
2021/08/09 10:33:11;;;;;;;3.67;3.43;;;22.10;91.90;;;;;;4938335;29;20472;-69
2021/08/09 10:35:39;;;;;;;3.83;3.53;;;22.10;91.90;;;;;;4951739;29;20454;-68
2021/08/09 10:38:15;;;;;;;3.80;3.60;;;22.10;91.90;;;;;;4938273;29;20437;-69
2021/08/09 10:40:42;;;;;;;4.90;4.60;;;22.10;91.30;;;;;;4937632;29;20507;-69
2021/08/09 10:43:08;;;;;;;8.20;5.97;;;22.10;91.20;;;;;;4938031;29;20968;-69
2021/08/09 10:45:36;;;;;;;6.20;5.90;;;22.20;91.90;;;;;;4937521;29;20425;-69
2021/08/09 10:48:04;;;;;;;6.57;6.00;;;22.20;92.30;;;;;;4952579;29;20432;-69
2021/08/09 10:50:42;;;;;;;5.10;4.80;;;22.30;93.70;;;;;;4937616;29;20512;-70
2021/08/09 10:53:26;;;;;;;8.17;7.67;;;22.30;92.70;;;;;;4938091;29;20398;-69
2021/08/09 10:55:53;;;;;;;4.43;4.03;;;22.40;92.30;;;;;;4938319;29;20457;-69
2021/08/09 10:58:58;;;;;;;5.70;5.40;;;22.60;93.00;;;;;;4936805;29;20418;-77
2021/08/09 11:01:25;;;;;;;4.90;4.50;;;22.80;93.30;;;;;;4949607;29;20528;-70
2021/08/09 11:04:03;;;;;;;3.20;3.00;;;22.80;91.20;;;;;;4957073;28;20913;-69
2021/08/09 11:06:50;;;;;;;4.70;4.43;;;22.60;91.00;;;;;;4918517;29;20429;-70
2021/08/09 11:09:43;;;;;;;6.27;4.27;;;22.40;90.50;;;;;;4919161;29;20422;-67
2021/08/09 11:12:18;;;;;;;4.30;4.10;;;22.30;90.90;;;;;;4918084;29;20422;-68
2021/08/09 11:15:10;;;;;;;3.77;3.57;;;22.20;91.50;;;;;;4932932;29;20792;-70
2021/08/09 11:17:39;;;;;;;4.20;4.00;;;22.10;92.10;;;;;;4937197;29;20460;-67
2021/08/09 11:20:11;;;;;;;4.50;4.10;;;22.00;91.90;;;;;;4940244;29;20507;-68
2021/08/09 11:22:38;;;;;;;4.50;4.20;;;21.90;92.10;;;;;;4942156;29;20753;-68
2021/08/09 11:25:22;;;;;;;4.30;4.00;;;21.80;92.60;;;;;;4945006;29;20459;-67
2021/08/09 11:28:03;;;;;;;4.40;4.13;;;21.70;92.90;;;;;;4956909;28;20455;-68
2021/08/09 11:30:38;;;;;;;13.00;11.40;;;21.60;93.10;;;;;;4955180;28;20464;-68
2021/08/09 11:33:04;;;;;;;5.20;4.70;;;21.60;93.30;;;;;;4956762;29;20571;-68
2021/08/09 11:35:31;;;;;;;4.77;4.47;;;21.60;93.10;;;;;;4940494;28;20768;-68
2021/08/09 11:37:58;;;;;;;4.40;3.93;;;21.60;93.70;;;;;;4937377;29;20473;-69
2021/08/09 11:40:45;;;;;;;4.50;4.20;;;21.60;93.60;;;;;;4938925;29;20456;-70
2021/08/09 11:48:50;;;;;;;5.00;4.27;;;22.00;93.70;;;;;;5251292;23;20832;-69
2021/08/09 11:51:25;;;;;;;4.90;4.60;;;22.20;96.00;;;;;;5054163;28;20405;-69
2021/08/09 11:53:53;;;;;;;8.00;7.63;;;22.40;93.70;;;;;;5044970;28;20416;-69
2021/08/09 11:56:20;;;;;;;6.03;5.73;;;22.50;92.30;;;;;;5033821;28;20410;-69
2021/08/09 11:58:46;;;;;;;3.83;3.63;;;22.70;93.10;;;;;;5003694;28;20961;-70
2021/08/09 12:01:31;;;;;;;4.90;4.50;;;22.80;92.00;;;;;;5031022;28;20420;-71
2021/08/09 12:04:13;;;;;;;5.70;5.33;;;22.80;92.10;;;;;;5048323;28;20428;-72
2021/08/09 12:06:57;;;;;;;5.73;5.53;;;22.90;90.30;;;;;;5053568;28;20409;-73
2021/08/09 12:09:38;;;;;;;5.80;5.47;;;23.00;86.10;;;;;;5036376;28;20447;-70
2021/08/09 12:12:06;;;;;;;4.00;3.70;;;23.00;85.00;;;;;;5045669;28;20466;-70
2021/08/09 12:14:33;;;;;;;6.53;5.93;;;22.90;83.50;;;;;;5027229;28;20429;-69
2021/08/09 12:17:00;;;;;;;4.10;3.70;;;22.80;82.60;;;;;;5034079;28;20428;-69
2021/08/09 12:19:37;;;;;;;5.77;3.57;;;22.90;84.80;;;;;;5033396;28;20476;-70
2021/08/09 12:22:10;;;;;;;5.60;5.10;;;23.00;85.40;;;;;;5033604;28;20423;-70
2021/08/09 12:24:37;;;;;;;4.60;4.00;;;23.10;84.30;;;;;;5031827;28;20500;-78
2021/08/09 12:27:20;;;;;;;3.23;3.03;;;23.20;84.70;;;;;;5031052;28;20927;-71
2021/08/09 12:30:03;;;;;;;3.77;3.60;;;23.20;84.60;;;;;;5047017;28;20424;-69
2021/08/09 12:32:29;;;;;;;3.73;3.53;;;23.30;84.60;;;;;;5051828;28;20408;-70
2021/08/09 12:34:56;;;;;;;4.43;4.10;;;23.10;80.50;;;;;;5050618;28;20957;-70
2021/08/09 12:37:22;;;;;;;3.80;3.60;;;22.90;82.10;;;;;;5018931;28;20422;-70
2021/08/09 12:39:48;;;;;;;4.23;3.60;;;22.90;81.50;;;;;;5023847;28;20869;-70
2021/08/09 12:42:19;;;;;;;3.77;3.57;;;23.00;81.40;;;;;;5044864;28;20512;-70
2021/08/09 12:44:47;;;;;;;5.63;5.33;;;23.00;80.60;;;;;;5026402;28;20243;-70
2021/08/09 12:47:13;;;;;;;4.67;4.20;;;23.10;78.40;;;;;;5013603;28;20413;-69
2021/08/09 12:49:39;;;;;;;4.17;3.73;;;23.10;79.20;;;;;;5025252;28;20568;-71
2021/08/09 12:52:05;;;;;;;5.70;5.30;;;23.20;79.80;;;;;;5032865;28;20531;-70
2021/08/09 12:54:31;;;;;;;3.73;3.53;;;23.20;77.50;;;;;;5044996;28;20178;-69
2021/08/09 12:56:57;;;;;;;5.10;4.90;;;23.30;77.50;;;;;;5013024;28;20705;-69
2021/08/09 12:59:23;;;;;;;3.53;3.37;;;23.30;77.70;;;;;;5013314;28;20699;-71